Lowden, Washington
Current Conditions -  °F | °C
As of 8:53 AM on Sunday 23 Nov 2014 (Local Time) from KALW Reporting Station
Overcast Overcast  
Wind Chill: 42°   Ceiling: 9000
Heat Index: 48°   Visibility: 10mi
Dew Point: 34°   Wind: 16mph
Humidity: 58%   Direction: 190°S
Pressure: 30.21"   Gusts: NA
Location:  46.1196°N, 118.708°W
Report Text: KALW 231653Z 19014KT 10SM FEW046 BKN090 OVC110 09/01 A3021 RMK AO2 SLP235 T00890011
Loading
Personal Weather Stations






























Interactive Weather Map New forecast layout! Learn more

10-Day Weather Forecast

Advertisements
Track Severe Weather on mobile